Shaver Lake, California
Current Conditions -  °F | °C
As of 4:53 PM on Tuesday 21 Oct 2014 (Local Time) from KFAT Reporting Station
Broken Clouds Broken Clouds  
Wind Chill: 74°   Ceiling: 25000
Heat Index: 74°   Visibility: 10mi
Dew Point: 38°   Wind: 10mph
Humidity: 27%   Direction: 310°NW
Pressure: 29.97"   Gusts: NA
Location:  37.1°N, 119.31°W
Report Text: KFAT 212353Z 31009KT 10SM FEW070 FEW150 SCT200 BKN250 23/03 A2997 RMK AO2 SLP147 FEW AC DSNT N NE E T02330033 10239 20189 55012
Loading
Personal Weather Stations






























Interactive Weather Map
Tropical Storm Tracking
New forecast layout! Learn more

10-Day Weather Forecast

Advertisements
Track Severe Weather on mobile